createdAt,value
2017-11-22T00:00:20.624Z,14.85
2017-11-22T00:01:26.630Z,15.82
2017-11-22T00:02:32.586Z,16.75
2017-11-22T00:03:39.005Z,15.70
2017-11-22T00:04:44.914Z,15.82
2017-11-22T00:05:51.029Z,15.60
2017-11-22T00:06:56.941Z,15.10
2017-11-22T00:08:03.104Z,14.65
2017-11-22T00:09:09.016Z,18.40
2017-11-22T00:10:15.191Z,15.77
2017-11-22T00:11:21.289Z,16.00
2017-11-22T00:12:28.359Z,15.80
2017-11-22T00:13:34.530Z,17.15
2017-11-22T00:14:42.853Z,14.80
2017-11-22T00:15:49.016Z,16.48
2017-11-22T00:16:55.111Z,18.12
2017-11-22T00:18:01.247Z,17.05
2017-11-22T00:19:07.358Z,16.85
2017-11-22T00:20:13.507Z,17.15
2017-11-22T00:21:19.606Z,15.65
2017-11-22T00:22:32.466Z,19.30
2017-11-22T00:23:38.567Z,14.77
2017-11-22T00:24:47.265Z,15.43
2017-11-22T00:25:53.427Z,15.32
2017-11-22T00:26:59.555Z,16.42
2017-11-22T00:28:05.796Z,15.25
2017-11-22T00:29:12.345Z,16.83
2017-11-22T00:30:18.559Z,15.45
2017-11-22T00:31:24.708Z,15.85
2017-11-22T00:32:31.048Z,15.65
2017-11-22T00:33:37.143Z,15.40
2017-11-22T00:34:44.160Z,16.42
2017-11-22T00:35:50.332Z,15.00
2017-11-22T00:36:56.448Z,15.20
2017-11-22T00:38:02.552Z,15.82
2017-11-22T00:39:10.111Z,15.10
2017-11-22T00:40:16.214Z,15.40
2017-11-22T00:41:22.354Z,14.10
2017-11-22T00:42:28.433Z,14.93
2017-11-22T00:43:34.557Z,15.90
2017-11-22T00:44:40.700Z,14.75
2017-11-22T00:45:46.645Z,15.52
2017-11-22T00:46:52.754Z,13.80
2017-11-22T00:47:58.964Z,15.82
2017-11-22T00:49:04.729Z,15.63
2017-11-22T00:50:10.997Z,16.58
2017-11-22T00:51:17.120Z,16.27
2017-11-22T00:52:23.249Z,15.32
2017-11-22T00:53:29.367Z,14.95
2017-11-22T00:54:35.559Z,17.62
2017-11-22T00:55:41.958Z,16.02
2017-11-22T00:56:48.073Z,16.77
2017-11-22T00:57:54.257Z,16.20
2017-11-22T00:59:00.374Z,16.98
2017-11-22T01:00:06.466Z,18.20
2017-11-22T01:01:12.440Z,15.23
2017-11-22T01:02:18.538Z,14.87
2017-11-22T01:03:24.644Z,16.70
2017-11-22T01:04:30.714Z,17.58
2017-11-22T01:05:36.626Z,15.77
2017-11-22T01:06:42.749Z,16.35
2017-11-22T01:07:48.887Z,15.57
2017-11-22T01:08:55.014Z,17.12
2017-11-22T01:10:01.134Z,16.48
2017-11-22T01:11:07.259Z,18.12
2017-11-22T01:12:13.435Z,15.80
2017-11-22T01:13:19.876Z,17.08
2017-11-22T01:14:25.988Z,16.15
2017-11-22T01:15:32.122Z,17.58
2017-11-22T01:16:38.226Z,17.27
2017-11-22T01:17:44.703Z,14.75
2017-11-22T01:18:50.832Z,16.58
2017-11-22T01:19:56.927Z,15.20
2017-11-22T01:21:03.247Z,14.35
2017-11-22T01:22:09.569Z,16.70
2017-11-22T01:23:15.702Z,16.25
2017-11-22T01:24:21.826Z,15.13
2017-11-22T01:25:27.972Z,14.85
2017-11-22T01:26:34.096Z,14.90
2017-11-22T01:27:40.206Z,14.57
2017-11-22T01:28:46.599Z,17.12
2017-11-22T01:29:52.717Z,15.63
2017-11-22T01:31:00.712Z,15.52
2017-11-22T01:32:06.796Z,15.00
2017-11-22T01:33:12.917Z,14.43
2017-11-22T01:34:18.714Z,14.35
2017-11-22T01:35:24.864Z,13.40
2017-11-22T01:36:33.167Z,16.05
2017-11-22T01:37:38.911Z,14.55
2017-11-22T01:38:45.014Z,14.13
2017-11-22T01:39:51.116Z,16.70
2017-11-22T01:40:57.222Z,14.93
2017-11-22T01:42:06.737Z,16.77
2017-11-22T01:43:12.875Z,14.20
2017-11-22T01:44:19.049Z,16.58
2017-11-22T01:45:24.880Z,17.02
2017-11-22T01:46:30.342Z,15.52
2017-11-22T01:47:35.788Z,13.93
2017-11-22T01:48:41.215Z,13.70
2017-11-22T01:49:46.616Z,13.85
2017-11-22T01:50:52.744Z,14.10
2017-11-22T01:51:58.651Z,13.85
2017-11-22T01:53:04.862Z,13.27
2017-11-22T01:54:11.012Z,13.40
2017-11-22T01:55:17.168Z,13.48
2017-11-22T01:56:23.321Z,16.92
2017-11-22T01:57:29.596Z,13.93
2017-11-22T01:58:35.786Z,12.55
2017-11-22T01:59:41.944Z,14.68
2017-11-22T02:00:54.374Z,13.05
2017-11-22T02:01:59.240Z,13.32
2017-11-22T02:03:16.801Z,13.57
2017-11-22T02:04:22.889Z,14.87
2017-11-22T02:05:28.991Z,12.85
2017-11-22T02:06:35.101Z,13.35
2017-11-22T02:07:41.214Z,12.68
2017-11-22T02:08:47.165Z,13.20
2017-11-22T02:09:53.259Z,11.98
2017-11-22T02:10:59.746Z,12.63
2017-11-22T02:12:05.873Z,11.38
2017-11-22T02:13:16.049Z,11.43
2017-11-22T02:14:22.159Z,12.30
2017-11-22T02:15:28.078Z,11.52
2017-11-22T02:16:34.210Z,14.68
2017-11-22T02:17:44.780Z,11.73
2017-11-22T02:18:51.828Z,13.57
2017-11-22T02:19:57.932Z,11.20
2017-11-22T02:21:04.063Z,11.80
2017-11-22T02:22:09.470Z,11.30
2017-11-22T02:23:15.588Z,11.68
2017-11-22T02:24:20.976Z,10.40
2017-11-22T02:25:28.026Z,11.63
2017-11-22T02:26:33.787Z,10.90
2017-11-22T02:27:39.880Z,10.70
2017-11-22T02:28:45.977Z,10.18
2017-11-22T02:29:52.085Z,10.40
2017-11-22T02:30:57.952Z,10.13
2017-11-22T02:32:03.450Z,11.95
2017-11-22T02:33:09.156Z,11.80
2017-11-22T02:34:14.868Z,10.77
2017-11-22T02:35:20.976Z,9.55
2017-11-22T02:36:26.727Z,10.70
2017-11-22T02:37:32.816Z,9.75
2017-11-22T02:38:38.923Z,9.70
2017-11-22T02:39:45.059Z,11.48
2017-11-22T02:40:51.284Z,10.88
2017-11-22T02:41:57.413Z,13.02
2017-11-22T02:43:03.523Z,9.32
2017-11-22T02:44:09.939Z,10.63
2017-11-22T02:45:15.999Z,9.80
2017-11-22T02:46:22.206Z,9.25
2017-11-22T02:47:27.943Z,9.27
2017-11-22T02:48:34.007Z,9.18
2017-11-22T02:49:39.681Z,9.85
2017-11-22T02:50:45.787Z,10.65
2017-11-22T02:51:53.732Z,9.20
2017-11-22T02:52:59.807Z,9.02
2017-11-22T02:54:09.895Z,10.05
2017-11-22T02:55:15.308Z,9.50
2017-11-22T02:56:21.137Z,9.18
2017-11-22T02:57:26.679Z,10.35
2017-11-22T02:58:32.785Z,8.77
2017-11-22T02:59:42.335Z,10.07
2017-11-22T03:00:48.127Z,11.75
2017-11-22T03:01:54.001Z,8.32
2017-11-22T03:02:59.716Z,8.75
2017-11-22T03:04:10.456Z,8.77
2017-11-22T03:05:16.562Z,11.98
2017-11-22T03:06:22.532Z,8.35
2017-11-22T03:07:28.061Z,9.30
2017-11-22T03:08:33.937Z,8.13
2017-11-22T03:09:40.020Z,8.65
2017-11-22T03:10:45.912Z,8.15
2017-11-22T03:11:52.042Z,8.20
2017-11-22T03:12:58.131Z,9.75
2017-11-22T03:14:03.868Z,10.38
2017-11-22T03:15:09.971Z,8.68
2017-11-22T03:16:16.116Z,8.10
2017-11-22T03:17:22.204Z,8.98
2017-11-22T03:18:28.319Z,8.30
2017-11-22T03:19:34.421Z,9.90
2017-11-22T03:20:44.159Z,7.35
2017-11-22T03:21:50.241Z,10.18
2017-11-22T03:22:56.339Z,8.57
2017-11-22T03:24:03.520Z,8.98
2017-11-22T03:25:09.367Z,8.13
2017-11-22T03:26:15.486Z,9.20
2017-11-22T03:27:21.565Z,8.02
2017-11-22T03:28:27.658Z,9.85
2017-11-22T03:29:33.776Z,9.55
2017-11-22T03:30:39.979Z,9.15
2017-11-22T03:31:46.058Z,10.93
2017-11-22T03:32:52.194Z,9.40
2017-11-22T03:33:58.239Z,8.07
2017-11-22T03:35:04.321Z,9.23
2017-11-22T03:36:09.684Z,8.40
2017-11-22T03:37:15.073Z,7.82
2017-11-22T03:38:20.932Z,8.50
2017-11-22T03:39:27.071Z,9.07
2017-11-22T03:40:32.516Z,9.80
2017-11-22T03:41:38.249Z,8.05
2017-11-22T03:42:46.511Z,9.48
2017-11-22T03:43:52.290Z,11.63
2017-11-22T03:44:58.080Z,8.52
2017-11-22T03:46:04.181Z,9.57
2017-11-22T03:47:12.767Z,8.95
2017-11-22T03:48:18.911Z,9.50
2017-11-22T03:49:25.027Z,8.00
2017-11-22T03:50:35.872Z,7.90
2017-11-22T03:51:47.335Z,8.60
2017-11-22T03:52:58.918Z,7.80
2017-11-22T03:54:04.781Z,7.97
2017-11-22T03:55:10.236Z,8.85
2017-11-22T03:56:16.317Z,8.00
2017-11-22T03:57:22.456Z,7.68
2017-11-22T03:58:27.841Z,6.68
2017-11-22T03:59:33.905Z,7.90
2017-11-22T04:00:41.679Z,7.78
2017-11-22T04:01:47.550Z,7.25
2017-11-22T04:02:59.032Z,7.68
2017-11-22T04:04:06.907Z,8.77
2017-11-22T04:05:13.045Z,8.40
2017-11-22T04:06:19.162Z,8.05
2017-11-22T04:07:25.258Z,7.87
2017-11-22T04:08:31.312Z,8.88
2017-11-22T04:09:37.457Z,6.97
2017-11-22T04:10:43.562Z,7.32
2017-11-22T04:11:49.607Z,7.47
2017-11-22T04:12:55.714Z,7.70
2017-11-22T04:14:01.781Z,6.30
2017-11-22T04:15:08.166Z,6.95
2017-11-22T04:16:14.270Z,7.12
2017-11-22T04:17:24.758Z,6.35
2017-11-22T04:18:30.841Z,6.25
2017-11-22T04:19:39.806Z,9.02
2017-11-22T04:20:45.975Z,6.82
2017-11-22T04:21:52.077Z,6.70
2017-11-22T04:22:58.151Z,6.97
2017-11-22T04:24:04.263Z,8.05
2017-11-22T04:25:10.321Z,5.40
2017-11-22T04:26:16.692Z,6.47
2017-11-22T04:27:22.789Z,6.12
2017-11-22T04:28:29.061Z,5.85
2017-11-22T04:29:36.005Z,5.93
2017-11-22T04:30:42.129Z,5.85
2017-11-22T04:31:48.282Z,6.03
2017-11-22T04:32:54.370Z,6.18
2017-11-22T04:34:00.622Z,6.50
2017-11-22T04:35:07.003Z,5.55
2017-11-22T04:36:13.131Z,6.53
2017-11-22T04:37:19.244Z,7.07
2017-11-22T04:38:25.315Z,5.53
2017-11-22T04:39:31.415Z,7.60
2017-11-22T04:40:37.551Z,6.47
2017-11-22T04:41:43.675Z,7.07
2017-11-22T04:42:49.818Z,10.10
2017-11-22T04:43:55.624Z,7.05
2017-11-22T04:45:01.379Z,6.75
2017-11-22T04:46:07.091Z,6.40
2017-11-22T04:47:12.850Z,6.12
2017-11-22T04:48:18.725Z,7.28
2017-11-22T04:49:25.184Z,6.70
2017-11-22T04:50:31.303Z,6.28
2017-11-22T04:51:37.345Z,6.32
2017-11-22T04:52:43.539Z,7.03
2017-11-22T04:53:49.580Z,7.10
2017-11-22T04:54:55.705Z,8.93
2017-11-22T04:56:01.616Z,7.03
2017-11-22T04:57:07.355Z,7.90
2017-11-22T04:58:13.465Z,10.43
2017-11-22T04:59:19.513Z,6.78
2017-11-22T05:00:24.906Z,8.20
2017-11-22T05:01:30.831Z,6.97
2017-11-22T05:02:36.564Z,7.43
2017-11-22T05:03:43.210Z,7.50
2017-11-22T05:04:49.318Z,6.72
2017-11-22T05:05:55.412Z,7.15
2017-11-22T05:07:01.475Z,9.55
2017-11-22T05:08:07.527Z,8.60
2017-11-22T05:09:13.627Z,8.10
2017-11-22T05:10:19.378Z,8.00
2017-11-22T05:11:25.491Z,7.47
2017-11-22T05:12:31.698Z,7.65
2017-11-22T05:13:37.858Z,7.45
2017-11-22T05:14:44.017Z,6.80
2017-11-22T05:15:51.867Z,7.25
2017-11-22T05:16:57.964Z,7.85
2017-11-22T05:18:04.048Z,10.35
2017-11-22T05:19:10.408Z,9.15
2017-11-22T05:20:16.536Z,7.30
2017-11-22T05:21:22.635Z,7.43
2017-11-22T05:22:28.728Z,6.57
2017-11-22T05:23:34.803Z,9.50
2017-11-22T05:24:40.997Z,8.25
2017-11-22T05:25:47.058Z,8.07
2017-11-22T05:26:58.251Z,9.05
2017-11-22T05:28:10.170Z,8.32
2017-11-22T05:29:16.290Z,8.00
2017-11-22T05:30:26.636Z,8.25
2017-11-22T05:31:32.762Z,8.02
2017-11-22T05:32:38.844Z,8.50
2017-11-22T05:33:44.976Z,9.60
2017-11-22T05:34:51.057Z,8.93
2017-11-22T05:35:57.181Z,9.10
2017-11-22T05:37:03.299Z,10.07
2017-11-22T05:38:09.365Z,9.07
2017-11-22T05:39:15.439Z,8.90
2017-11-22T05:40:21.489Z,9.73
2017-11-22T05:41:27.591Z,8.15
2017-11-22T05:42:40.477Z,11.50
2017-11-22T05:43:47.167Z,9.50
2017-11-22T05:44:53.275Z,9.63
2017-11-22T05:45:59.439Z,9.98
2017-11-22T05:47:06.193Z,10.10
2017-11-22T05:48:12.326Z,8.82
2017-11-22T05:49:18.396Z,9.43
2017-11-22T05:50:24.512Z,10.35
2017-11-22T05:51:30.620Z,9.70
2017-11-22T05:52:36.680Z,9.70
2017-11-22T05:53:42.783Z,9.07
2017-11-22T05:54:48.162Z,9.68
2017-11-22T05:55:53.599Z,9.15
2017-11-22T05:56:59.053Z,10.05
2017-11-22T05:58:04.557Z,11.05
2017-11-22T05:59:10.695Z,8.95
2017-11-22T06:00:16.457Z,10.63
2017-11-22T06:01:22.339Z,9.90
2017-11-22T06:02:28.475Z,9.10
2017-11-22T06:03:34.463Z,12.15
2017-11-22T06:04:40.566Z,9.48
2017-11-22T06:05:46.755Z,9.30
2017-11-22T06:06:52.846Z,9.98
2017-11-22T06:08:02.898Z,10.02
2017-11-22T06:09:10.017Z,9.13
2017-11-22T06:10:16.161Z,11.00
2017-11-22T06:11:22.340Z,8.57
2017-11-22T06:12:28.459Z,10.93
2017-11-22T06:13:34.556Z,10.35
2017-11-22T06:14:40.729Z,8.85
2017-11-22T06:15:46.849Z,9.95
2017-11-22T06:16:53.000Z,9.57
2017-11-22T06:17:59.042Z,10.23
2017-11-22T06:19:05.121Z,9.63
2017-11-22T06:20:11.285Z,10.15
2017-11-22T06:21:17.384Z,9.00
2017-11-22T06:22:23.496Z,9.65
2017-11-22T06:23:29.546Z,8.48
2017-11-22T06:24:35.604Z,10.07
2017-11-22T06:25:41.682Z,10.32
2017-11-22T06:26:48.048Z,9.32
2017-11-22T06:27:54.155Z,11.90
2017-11-22T06:29:01.509Z,9.25
2017-11-22T06:30:12.948Z,10.95
2017-11-22T06:31:19.031Z,10.45
2017-11-22T06:32:25.184Z,9.50
2017-11-22T06:33:31.090Z,10.05
2017-11-22T06:34:37.163Z,10.35
2017-11-22T06:35:43.269Z,9.30
2017-11-22T06:36:49.351Z,9.90
2017-11-22T06:37:55.503Z,11.10
2017-11-22T06:39:06.413Z,10.10
2017-11-22T06:40:12.491Z,12.27
2017-11-22T06:41:18.571Z,11.75
2017-11-22T06:42:24.679Z,9.30
2017-11-22T06:43:30.791Z,11.35
2017-11-22T06:44:36.857Z,9.73
2017-11-22T06:45:42.967Z,9.20
2017-11-22T06:46:49.330Z,10.18
2017-11-22T06:47:55.462Z,13.38
2017-11-22T06:49:01.533Z,10.02
2017-11-22T06:50:07.625Z,9.48
2017-11-22T06:51:13.878Z,10.02
2017-11-22T06:52:19.965Z,10.82
2017-11-22T06:53:26.030Z,9.32
2017-11-22T06:54:34.913Z,8.98
2017-11-22T06:55:40.985Z,9.52
2017-11-22T06:56:48.776Z,10.40
2017-11-22T06:57:54.881Z,9.98
2017-11-22T06:59:01.001Z,11.07
2017-11-22T07:00:06.809Z,8.95
2017-11-22T07:01:18.514Z,9.35
2017-11-22T07:02:30.084Z,8.95
2017-11-22T07:03:41.695Z,9.32
2017-11-22T07:04:47.815Z,10.35
2017-11-22T07:05:53.915Z,10.82
2017-11-22T07:06:59.997Z,13.07
2017-11-22T07:08:06.102Z,9.50
2017-11-22T07:09:12.223Z,9.55
2017-11-22T07:10:26.655Z,8.93
2017-11-22T07:11:33.661Z,8.73
2017-11-22T07:12:39.723Z,9.98
2017-11-22T07:13:45.843Z,9.10
2017-11-22T07:14:51.943Z,8.88
2017-11-22T07:15:57.998Z,9.23
2017-11-22T07:17:09.442Z,8.35
2017-11-22T07:18:15.475Z,8.73
2017-11-22T07:19:21.554Z,10.10
2017-11-22T07:20:27.745Z,9.48
2017-11-22T07:21:33.858Z,10.65
2017-11-22T07:22:39.636Z,9.23
2017-11-22T07:23:45.701Z,8.57
2017-11-22T07:24:51.817Z,9.45
2017-11-22T07:25:57.718Z,8.90
2017-11-22T07:27:03.822Z,10.07
2017-11-22T07:28:09.578Z,7.53
2017-11-22T07:29:15.731Z,12.07
2017-11-22T07:30:21.884Z,7.93
2017-11-22T07:31:30.275Z,9.73
2017-11-22T07:32:36.385Z,10.07
2017-11-22T07:33:42.623Z,10.15
2017-11-22T07:34:48.678Z,10.52
2017-11-22T07:36:00.129Z,9.13
2017-11-22T07:37:11.526Z,11.48
2017-11-22T07:38:17.954Z,10.85
2017-11-22T07:39:24.406Z,10.00
2017-11-22T07:40:30.247Z,9.32
2017-11-22T07:41:36.150Z,9.23
2017-11-22T07:42:42.082Z,9.63
2017-11-22T07:43:48.173Z,8.88
2017-11-22T07:44:54.312Z,8.02
2017-11-22T07:46:11.860Z,8.75
2017-11-22T07:47:19.733Z,9.15
2017-11-22T07:48:25.841Z,9.05
2017-11-22T07:49:32.219Z,10.27
2017-11-22T07:50:38.360Z,8.75
2017-11-22T07:51:49.824Z,8.85
2017-11-22T07:52:55.938Z,12.35
2017-11-22T07:54:02.085Z,10.75
2017-11-22T07:55:08.256Z,9.57
2017-11-22T07:56:16.295Z,8.38
2017-11-22T07:57:27.113Z,8.32
2017-11-22T07:58:36.469Z,9.45
2017-11-22T07:59:42.527Z,9.45
2017-11-22T08:00:48.671Z,8.23
2017-11-22T08:01:54.425Z,8.93
2017-11-22T08:03:05.805Z,7.57
2017-11-22T08:04:17.564Z,7.47
2017-11-22T08:05:23.424Z,8.20
2017-11-22T08:06:29.185Z,8.98
2017-11-22T08:07:35.304Z,7.25
2017-11-22T08:08:41.406Z,10.32
2017-11-22T08:09:47.514Z,8.98
2017-11-22T08:10:53.602Z,9.98
2017-11-22T08:11:59.671Z,9.07
2017-11-22T08:13:10.696Z,8.23
2017-11-22T08:14:16.811Z,9.50
2017-11-22T08:15:22.929Z,9.52
2017-11-22T08:16:29.009Z,10.02
2017-11-22T08:17:35.104Z,8.32
2017-11-22T08:18:41.167Z,8.13
2017-11-22T08:19:49.076Z,13.05
2017-11-22T08:20:55.192Z,8.85
2017-11-22T08:22:01.288Z,10.30
2017-11-22T08:23:07.439Z,8.57
2017-11-22T08:24:13.537Z,10.70
2017-11-22T08:25:22.614Z,8.27
2017-11-22T08:26:28.694Z,8.50
2017-11-22T08:27:34.783Z,9.05
2017-11-22T08:28:44.849Z,8.02
2017-11-22T08:29:54.672Z,9.15
2017-11-22T08:31:02.690Z,7.95
2017-11-22T08:32:08.834Z,8.88
2017-11-22T08:33:14.925Z,9.30
2017-11-22T08:34:21.028Z,7.68
2017-11-22T08:35:30.286Z,8.13
2017-11-22T08:36:36.389Z,8.30
2017-11-22T08:37:42.477Z,11.15
2017-11-22T08:38:48.582Z,8.68
2017-11-22T08:39:54.690Z,10.23
2017-11-22T08:41:00.780Z,7.43
2017-11-22T08:42:06.516Z,7.97
2017-11-22T08:43:18.072Z,8.15
2017-11-22T08:44:24.312Z,8.98
2017-11-22T08:45:30.399Z,7.90
2017-11-22T08:46:36.554Z,7.68
2017-11-22T08:47:42.698Z,7.12
2017-11-22T08:48:48.828Z,9.10
2017-11-22T08:49:54.886Z,9.18
2017-11-22T08:51:00.961Z,9.43
2017-11-22T08:52:07.065Z,10.38
2017-11-22T08:53:13.154Z,8.25
2017-11-22T08:54:25.377Z,8.50
2017-11-22T08:55:44.629Z,10.27
2017-11-22T08:56:56.074Z,8.80
2017-11-22T08:58:07.546Z,8.77
2017-11-22T08:59:13.660Z,9.65
2017-11-22T09:00:19.756Z,8.27
2017-11-22T09:01:25.808Z,8.23
2017-11-22T09:02:31.937Z,9.57
2017-11-22T09:03:43.422Z,9.73
2017-11-22T09:04:49.510Z,7.68
2017-11-22T09:06:00.998Z,9.13
2017-11-22T09:07:13.286Z,9.13
2017-11-22T09:08:19.338Z,8.00
2017-11-22T09:09:25.488Z,8.32
2017-11-22T09:10:31.592Z,8.00
2017-11-22T09:11:48.427Z,9.43
2017-11-22T09:12:54.517Z,9.30
2017-11-22T09:14:00.589Z,11.82
2017-11-22T09:15:06.573Z,8.15
2017-11-22T09:16:13.165Z,9.50
2017-11-22T09:17:20.004Z,9.10
2017-11-22T09:18:35.307Z,9.27
2017-11-22T09:19:41.401Z,10.10
2017-11-22T09:20:47.181Z,10.13
2017-11-22T09:21:53.258Z,9.82
2017-11-22T09:22:59.403Z,10.23
2017-11-22T09:24:11.291Z,9.23
2017-11-22T09:25:17.346Z,9.50
2017-11-22T09:26:23.400Z,8.93
2017-11-22T09:27:34.910Z,8.98
2017-11-22T09:28:41.420Z,9.80
2017-11-22T09:30:01.891Z,10.73
2017-11-22T09:31:13.427Z,8.90
2017-11-22T09:32:24.844Z,11.50
2017-11-22T09:33:30.949Z,10.27
2017-11-22T09:34:42.088Z,13.27
2017-11-22T09:35:48.200Z,9.65
2017-11-22T09:36:54.303Z,10.13
2017-11-22T09:38:00.415Z,8.90
2017-11-22T09:39:06.242Z,9.82
2017-11-22T09:40:12.350Z,8.98
2017-11-22T09:41:18.429Z,9.52
2017-11-22T09:42:24.353Z,9.85
2017-11-22T09:43:30.460Z,11.02
2017-11-22T09:44:36.568Z,12.15
2017-11-22T09:45:42.660Z,10.35
2017-11-22T09:46:48.812Z,10.95
2017-11-22T09:47:55.072Z,9.70
2017-11-22T09:49:01.134Z,13.70
2017-11-22T09:50:07.251Z,9.52
2017-11-22T09:51:14.229Z,12.70
2017-11-22T09:52:20.357Z,12.63
2017-11-22T09:53:26.302Z,10.73
2017-11-22T09:54:32.384Z,8.15
2017-11-22T09:55:38.471Z,7.80
2017-11-22T09:56:44.536Z,9.13
2017-11-22T09:57:55.053Z,9.27
2017-11-22T09:59:01.308Z,10.80
2017-11-22T10:00:07.441Z,9.07
2017-11-22T10:01:13.343Z,11.50
2017-11-22T10:02:19.204Z,8.20
2017-11-22T10:03:25.182Z,7.93
2017-11-22T10:04:31.327Z,12.40
2017-11-22T10:05:37.416Z,8.15
2017-11-22T10:06:43.516Z,9.57
2017-11-22T10:07:49.603Z,7.57
2017-11-22T10:08:55.728Z,9.50
2017-11-22T10:10:01.820Z,7.90
2017-11-22T10:11:07.909Z,9.07
2017-11-22T10:12:14.135Z,8.55
2017-11-22T10:13:20.372Z,7.20
2017-11-22T10:14:26.470Z,8.68
2017-11-22T10:15:32.563Z,7.28
2017-11-22T10:16:38.519Z,9.30
2017-11-22T10:17:44.414Z,8.00
2017-11-22T10:18:50.420Z,8.45
2017-11-22T10:20:04.695Z,8.25
2017-11-22T10:21:13.492Z,7.18
2017-11-22T10:22:19.431Z,8.13
2017-11-22T10:23:27.250Z,6.70
2017-11-22T10:24:33.138Z,7.62
2017-11-22T10:25:39.019Z,7.72
2017-11-22T10:26:49.659Z,7.75
2017-11-22T10:28:01.295Z,7.87
2017-11-22T10:29:11.257Z,8.52
2017-11-22T10:30:17.188Z,8.70
2017-11-22T10:31:27.148Z,8.25
2017-11-22T10:32:33.081Z,10.88
2017-11-22T10:33:39.171Z,8.30
2017-11-22T10:34:44.919Z,8.40
2017-11-22T10:35:50.319Z,8.98
2017-11-22T10:36:56.216Z,11.10
2017-11-22T10:38:02.294Z,7.80
2017-11-22T10:39:08.450Z,8.65
2017-11-22T10:40:14.238Z,8.43
2017-11-22T10:41:20.291Z,7.62
2017-11-22T10:42:26.383Z,8.80
2017-11-22T10:43:32.447Z,7.00
2017-11-22T10:44:38.546Z,8.95
2017-11-22T10:45:44.001Z,8.57
2017-11-22T10:46:50.112Z,9.27
2017-11-22T10:47:56.307Z,8.05
2017-11-22T10:49:02.389Z,7.93
2017-11-22T10:50:08.537Z,10.70
2017-11-22T10:51:20.870Z,10.02
2017-11-22T10:52:26.925Z,7.18
2017-11-22T10:53:33.052Z,8.85
2017-11-22T10:54:39.259Z,10.23
2017-11-22T10:55:44.474Z,9.60
2017-11-22T10:56:49.707Z,8.10
2017-11-22T10:57:55.200Z,9.65
2017-11-22T10:59:00.638Z,13.15
2017-11-22T11:00:06.746Z,7.10
2017-11-22T11:01:12.488Z,7.12
2017-11-22T11:02:18.566Z,7.70
2017-11-22T11:03:24.328Z,7.28
2017-11-22T11:04:30.477Z,8.77
2017-11-22T11:05:36.533Z,7.40
2017-11-22T11:06:42.323Z,10.95
2017-11-22T11:07:47.760Z,7.55
2017-11-22T11:08:53.841Z,9.77
2017-11-22T11:10:04.062Z,8.57
2017-11-22T11:11:10.131Z,8.05
2017-11-22T11:12:17.106Z,10.23
2017-11-22T11:13:23.203Z,8.65
2017-11-22T11:14:29.257Z,8.20
2017-11-22T11:15:35.376Z,7.85
2017-11-22T11:16:41.475Z,7.62
2017-11-22T11:17:47.560Z,8.50
2017-11-22T11:18:53.899Z,7.72
2017-11-22T11:19:59.998Z,9.45
2017-11-22T11:21:06.089Z,8.57
2017-11-22T11:22:12.171Z,8.68
2017-11-22T11:23:18.328Z,8.93
2017-11-22T11:24:24.303Z,10.88
2017-11-22T11:25:32.274Z,11.80
2017-11-22T11:26:38.338Z,10.00
2017-11-22T11:27:44.519Z,9.10
2017-11-22T11:28:50.608Z,9.88
2017-11-22T11:29:56.692Z,9.80
2017-11-22T11:31:02.430Z,9.27
2017-11-22T11:32:08.631Z,9.55
2017-11-22T11:33:15.037Z,8.57
2017-11-22T11:34:20.896Z,9.23
2017-11-22T11:35:38.324Z,9.68
2017-11-22T11:36:43.475Z,8.65
2017-11-22T11:37:48.850Z,11.00
2017-11-22T11:38:54.257Z,7.87
2017-11-22T11:40:00.021Z,10.23
2017-11-22T11:41:05.752Z,9.60
2017-11-22T11:42:11.588Z,8.65
2017-11-22T11:43:17.294Z,9.65
2017-11-22T11:44:22.773Z,10.18
2017-11-22T11:45:28.174Z,9.68
2017-11-22T11:46:33.908Z,9.95
2017-11-22T11:47:40.049Z,9.70
2017-11-22T11:48:49.090Z,8.50
2017-11-22T11:49:59.769Z,8.43
2017-11-22T11:51:05.865Z,8.80
2017-11-22T11:52:11.649Z,10.07
2017-11-22T11:53:17.403Z,10.15
2017-11-22T11:54:23.543Z,10.75
2017-11-22T11:55:29.683Z,9.57
2017-11-22T11:56:35.738Z,8.73
2017-11-22T11:57:41.808Z,9.65
2017-11-22T11:58:47.887Z,9.93
2017-11-22T11:59:53.959Z,9.43
2017-11-22T12:00:59.428Z,9.70
2017-11-22T12:02:04.832Z,9.85
2017-11-22T12:03:10.700Z,9.27
2017-11-22T12:04:16.769Z,9.52
2017-11-22T12:05:22.884Z,11.32
2017-11-22T12:06:28.987Z,10.30
2017-11-22T12:07:35.090Z,9.77
2017-11-22T12:08:45.937Z,11.98
2017-11-22T12:09:52.096Z,11.05
2017-11-22T12:10:58.186Z,15.43
2017-11-22T12:12:07.275Z,10.40
2017-11-22T12:13:13.343Z,10.77
2017-11-22T12:14:19.718Z,9.95
2017-11-22T12:15:25.778Z,9.65
2017-11-22T12:16:31.841Z,10.52
2017-11-22T12:17:37.973Z,10.40
2017-11-22T12:18:43.743Z,9.77
2017-11-22T12:19:49.961Z,9.73
2017-11-22T12:21:00.868Z,9.20
2017-11-22T12:22:14.131Z,9.63
2017-11-22T12:23:25.223Z,9.30
2017-11-22T12:24:39.179Z,9.50
2017-11-22T12:25:46.420Z,10.10
2017-11-22T12:26:52.561Z,9.20
2017-11-22T12:27:58.825Z,10.00
2017-11-22T12:29:04.926Z,8.15
2017-11-22T12:30:11.007Z,9.35
2017-11-22T12:31:17.115Z,9.70
2017-11-22T12:32:23.207Z,10.93
2017-11-22T12:33:29.368Z,9.90
2017-11-22T12:34:35.282Z,9.13
2017-11-22T12:35:41.323Z,9.07
2017-11-22T12:36:47.396Z,8.63
2017-11-22T12:37:53.474Z,9.05
2017-11-22T12:38:59.680Z,10.15
2017-11-22T12:40:05.797Z,9.02
2017-11-22T12:41:11.883Z,9.10
2017-11-22T12:42:17.942Z,10.55
2017-11-22T12:43:24.008Z,8.70
2017-11-22T12:44:30.094Z,9.68
2017-11-22T12:45:37.683Z,10.75
2017-11-22T12:46:46.811Z,10.00
2017-11-22T12:47:52.882Z,10.15
2017-11-22T12:48:59.000Z,9.90
2017-11-22T12:50:05.086Z,10.85
2017-11-22T12:51:10.881Z,9.52
2017-11-22T12:52:17.270Z,8.82
2017-11-22T12:53:23.376Z,10.80
2017-11-22T12:54:32.179Z,8.93
2017-11-22T12:55:38.331Z,10.75
2017-11-22T12:56:44.411Z,8.77
2017-11-22T12:57:54.442Z,8.90
2017-11-22T12:59:00.689Z,9.20
2017-11-22T13:00:06.416Z,10.35
2017-11-22T13:01:12.402Z,9.75
2017-11-22T13:02:18.475Z,9.52
2017-11-22T13:03:28.547Z,10.05
2017-11-22T13:04:34.244Z,10.13
2017-11-22T13:05:40.316Z,10.13
2017-11-22T13:06:55.596Z,8.77
2017-11-22T13:08:05.553Z,8.10
2017-11-22T13:09:11.322Z,9.80
2017-11-22T13:10:20.510Z,9.82
2017-11-22T13:11:41.285Z,9.43
2017-11-22T13:12:47.002Z,14.30
2017-11-22T13:13:52.728Z,11.77
2017-11-22T13:14:58.864Z,11.27
2017-11-22T13:16:04.627Z,11.73
2017-11-22T13:17:10.786Z,9.50
2017-11-22T13:18:16.875Z,9.88
2017-11-22T13:19:23.124Z,9.38
2017-11-22T13:20:29.230Z,9.68
2017-11-22T13:21:38.949Z,9.40
2017-11-22T13:22:45.218Z,15.15
2017-11-22T13:23:51.294Z,9.32
2017-11-22T13:24:57.455Z,12.05
2017-11-22T13:26:03.195Z,10.30
2017-11-22T13:27:09.475Z,9.40
2017-11-22T13:28:15.702Z,10.55
2017-11-22T13:29:21.810Z,9.68
2017-11-22T13:30:27.910Z,9.63
2017-11-22T13:31:33.655Z,8.77
2017-11-22T13:32:40.647Z,10.13
2017-11-22T13:33:46.573Z,9.80
2017-11-22T13:34:55.563Z,8.68
2017-11-22T13:36:01.379Z,9.75
2017-11-22T13:37:06.632Z,9.55
2017-11-22T13:38:12.152Z,10.43
2017-11-22T13:39:20.052Z,9.02
2017-11-22T13:40:25.297Z,9.50
2017-11-22T13:41:30.320Z,9.15
2017-11-22T13:42:36.202Z,9.10
2017-11-22T13:43:41.647Z,8.52
2017-11-22T13:44:47.369Z,9.32
2017-11-22T13:45:52.785Z,10.05
2017-11-22T13:46:58.994Z,9.02
2017-11-22T13:48:05.970Z,8.88
2017-11-22T13:49:13.410Z,9.00
2017-11-22T13:50:19.287Z,10.02
2017-11-22T13:51:25.035Z,9.52
2017-11-22T13:52:30.865Z,10.20
2017-11-22T13:53:36.981Z,9.45
2017-11-22T13:54:42.568Z,9.73
2017-11-22T13:55:48.089Z,9.52
2017-11-22T13:56:53.867Z,10.05
2017-11-22T13:57:59.318Z,8.38
2017-11-22T13:59:04.912Z,9.55
2017-11-22T14:00:10.334Z,9.32
2017-11-22T14:01:15.613Z,9.52
2017-11-22T14:02:21.128Z,9.57
2017-11-22T14:03:29.428Z,9.90
2017-11-22T14:04:34.863Z,9.00
2017-11-22T14:05:40.490Z,9.68
2017-11-22T14:06:45.900Z,8.38
2017-11-22T14:07:51.275Z,9.63
2017-11-22T14:08:57.782Z,10.55
2017-11-22T14:10:04.862Z,8.38
2017-11-22T14:11:10.774Z,9.27
2017-11-22T14:12:16.003Z,8.35
2017-11-22T14:13:21.235Z,8.48
2017-11-22T14:14:26.450Z,8.55
2017-11-22T14:15:31.848Z,8.50
2017-11-22T14:16:37.676Z,8.52
2017-11-22T14:17:43.087Z,9.13
2017-11-22T14:18:51.573Z,9.55
2017-11-22T14:19:57.003Z,9.38
2017-11-22T14:21:02.420Z,8.93
2017-11-22T14:22:07.792Z,9.18
2017-11-22T14:23:13.377Z,15.05
2017-11-22T14:24:18.759Z,9.63
2017-11-22T14:25:24.534Z,9.18
2017-11-22T14:26:30.143Z,9.40
2017-11-22T14:27:35.961Z,8.98
2017-11-22T14:28:41.387Z,8.25
2017-11-22T14:29:46.835Z,8.30
2017-11-22T14:30:53.015Z,11.12
2017-11-22T14:31:58.924Z,9.32
2017-11-22T14:33:04.420Z,9.75
2017-11-22T14:34:10.035Z,9.23
2017-11-22T14:35:15.249Z,9.35
2017-11-22T14:36:21.700Z,8.73